sensor_id;sensor_type;location;lat;lon;timestamp;temperature;humidity
19892;DHT22;10108;50.142;8.724;2023-07-29T00:01:31;19.00;99.90
19892;DHT22;10108;50.142;8.724;2023-07-29T00:03:57;19.00;99.90
19892;DHT22;10108;50.142;8.724;2023-07-29T00:06:24;19.00;99.90
19892;DHT22;10108;50.142;8.724;2023-07-29T00:08:50;19.00;99.90
19892;DHT22;10108;50.142;8.724;2023-07-29T00:11:16;19.00;99.90
19892;DHT22;10108;50.142;8.724;2023-07-29T00:13:42;19.10;99.90
19892;DHT22;10108;50.142;8.724;2023-07-29T00:16:08;19.00;99.90
19892;DHT22;10108;50.142;8.724;2023-07-29T00:18:34;19.10;99.90
19892;DHT22;10108;50.142;8.724;2023-07-29T00:21:01;19.10;99.90
19892;DHT22;10108;50.142;8.724;2023-07-29T00:23:27;19.10;99.90
19892;DHT22;10108;50.142;8.724;2023-07-29T00:25:53;19.10;99.90
19892;DHT22;10108;50.142;8.724;2023-07-29T00:28:19;19.10;99.90
19892;DHT22;10108;50.142;8.724;2023-07-29T00:30:45;19.10;99.90
19892;DHT22;10108;50.142;8.724;2023-07-29T00:33:11;19.10;99.90
19892;DHT22;10108;50.142;8.724;2023-07-29T00:35:38;19.10;99.90
19892;DHT22;10108;50.142;8.724;2023-07-29T00:38:04;19.10;99.90
19892;DHT22;10108;50.142;8.724;2023-07-29T00:40:30;19.10;99.90
19892;DHT22;10108;50.142;8.724;2023-07-29T00:43:00;19.10;99.90
19892;DHT22;10108;50.142;8.724;2023-07-29T00:45:27;19.10;99.90
19892;DHT22;10108;50.142;8.724;2023-07-29T00:47:54;19.10;99.90
19892;DHT22;10108;50.142;8.724;2023-07-29T00:50:21;19.10;99.90
19892;DHT22;10108;50.142;8.724;2023-07-29T00:52:49;19.10;99.90
19892;DHT22;10108;50.142;8.724;2023-07-29T00:55:15;19.10;99.90
19892;DHT22;10108;50.142;8.724;2023-07-29T00:57:41;19.10;99.90
19892;DHT22;10108;50.142;8.724;2023-07-29T01:00:09;19.10;99.90
19892;DHT22;10108;50.142;8.724;2023-07-29T01:02:35;19.10;99.90
19892;DHT22;10108;50.142;8.724;2023-07-29T01:05:02;19.10;99.90
19892;DHT22;10108;50.142;8.724;2023-07-29T01:10:10;19.10;99.90
19892;DHT22;10108;50.142;8.724;2023-07-29T01:12:58;19.10;99.90
19892;DHT22;10108;50.142;8.724;2023-07-29T01:18:26;19.10;99.90
19892;DHT22;10108;50.142;8.724;2023-07-29T01:20:59;19.10;99.90
19892;DHT22;10108;50.142;8.724;2023-07-29T01:23:29;19.10;99.90
19892;DHT22;10108;50.142;8.724;2023-07-29T01:25:56;19.10;99.90
19892;DHT22;10108;50.142;8.724;2023-07-29T01:28:22;19.10;99.90
19892;DHT22;10108;50.142;8.724;2023-07-29T01:30:51;19.10;99.90
19892;DHT22;10108;50.142;8.724;2023-07-29T01:33:26;19.10;99.90
19892;DHT22;10108;50.142;8.724;2023-07-29T01:35:58;19.10;99.90
19892;DHT22;10108;50.142;8.724;2023-07-29T01:38:29;19.10;99.90
19892;DHT22;10108;50.142;8.724;2023-07-29T01:41:06;19.20;99.90
19892;DHT22;10108;50.142;8.724;2023-07-29T01:43:33;19.10;99.90
19892;DHT22;10108;50.142;8.724;2023-07-29T01:46:00;19.20;99.90
19892;DHT22;10108;50.142;8.724;2023-07-29T01:48:27;19.20;99.90
19892;DHT22;10108;50.142;8.724;2023-07-29T01:50:56;19.20;99.90
19892;DHT22;10108;50.142;8.724;2023-07-29T01:53:23;19.10;99.90
19892;DHT22;10108;50.142;8.724;2023-07-29T01:55:49;19.10;99.90
19892;DHT22;10108;50.142;8.724;2023-07-29T01:58:16;19.10;99.90
19892;DHT22;10108;50.142;8.724;2023-07-29T02:00:46;19.10;99.90
19892;DHT22;10108;50.142;8.724;2023-07-29T02:03:12;19.10;99.90
19892;DHT22;10108;50.142;8.724;2023-07-29T02:05:39;19.10;99.90
19892;DHT22;10108;50.142;8.724;2023-07-29T02:08:05;19.10;99.90
19892;DHT22;10108;50.142;8.724;2023-07-29T02:10:31;19.10;99.90
19892;DHT22;10108;50.142;8.724;2023-07-29T02:12:57;19.10;99.90
19892;DHT22;10108;50.142;8.724;2023-07-29T02:15:24;19.10;99.90
19892;DHT22;10108;50.142;8.724;2023-07-29T02:17:50;19.10;99.90
19892;DHT22;10108;50.142;8.724;2023-07-29T02:20:17;19.10;99.90
19892;DHT22;10108;50.142;8.724;2023-07-29T02:22:44;19.10;99.90
19892;DHT22;10108;50.142;8.724;2023-07-29T02:25:10;19.00;99.90
19892;DHT22;10108;50.142;8.724;2023-07-29T02:27:36;19.10;99.90
19892;DHT22;10108;50.142;8.724;2023-07-29T02:30:02;19.10;99.90
19892;DHT22;10108;50.142;8.724;2023-07-29T02:32:29;19.10;99.90
19892;DHT22;10108;50.142;8.724;2023-07-29T02:34:55;19.10;99.90
19892;DHT22;10108;50.142;8.724;2023-07-29T02:37:21;19.10;99.90
19892;DHT22;10108;50.142;8.724;2023-07-29T02:39:47;19.10;99.90
19892;DHT22;10108;50.142;8.724;2023-07-29T02:42:13;19.00;99.90
19892;DHT22;10108;50.142;8.724;2023-07-29T02:44:40;19.00;99.90
19892;DHT22;10108;50.142;8.724;2023-07-29T02:47:06;19.00;99.90
19892;DHT22;10108;50.142;8.724;2023-07-29T02:49:32;19.00;99.90
19892;DHT22;10108;50.142;8.724;2023-07-29T02:51:58;18.90;99.90
19892;DHT22;10108;50.142;8.724;2023-07-29T02:54:24;18.90;99.90
19892;DHT22;10108;50.142;8.724;2023-07-29T02:56:50;18.90;99.90
19892;DHT22;10108;50.142;8.724;2023-07-29T02:59:17;18.80;99.90
19892;DHT22;10108;50.142;8.724;2023-07-29T03:01:43;18.90;99.90
19892;DHT22;10108;50.142;8.724;2023-07-29T03:04:09;18.80;99.90
19892;DHT22;10108;50.142;8.724;2023-07-29T03:06:39;18.80;99.90
19892;DHT22;10108;50.142;8.724;2023-07-29T03:09:05;18.70;99.90
19892;DHT22;10108;50.142;8.724;2023-07-29T03:11:31;18.70;99.90
19892;DHT22;10108;50.142;8.724;2023-07-29T03:13:57;18.90;99.90
19892;DHT22;10108;50.142;8.724;2023-07-29T03:16:24;18.60;99.90
19892;DHT22;10108;50.142;8.724;2023-07-29T03:18:54;18.60;99.90
19892;DHT22;10108;50.142;8.724;2023-07-29T03:21:20;18.70;99.90
19892;DHT22;10108;50.142;8.724;2023-07-29T03:23:46;18.70;99.90
19892;DHT22;10108;50.142;8.724;2023-07-29T03:26:13;18.60;99.90
19892;DHT22;10108;50.142;8.724;2023-07-29T03:28:41;18.60;99.90
19892;DHT22;10108;50.142;8.724;2023-07-29T03:31:08;18.60;99.90
19892;DHT22;10108;50.142;8.724;2023-07-29T03:33:34;18.60;99.90
19892;DHT22;10108;50.142;8.724;2023-07-29T03:36:00;18.60;99.90
19892;DHT22;10108;50.142;8.724;2023-07-29T03:38:26;18.60;99.90
19892;DHT22;10108;50.142;8.724;2023-07-29T03:40:53;18.70;99.90
19892;DHT22;10108;50.142;8.724;2023-07-29T03:43:19;18.60;99.90
19892;DHT22;10108;50.142;8.724;2023-07-29T03:45:46;18.60;99.90
19892;DHT22;10108;50.142;8.724;2023-07-29T03:48:12;18.60;99.90
19892;DHT22;10108;50.142;8.724;2023-07-29T03:50:39;18.70;99.90
19892;DHT22;10108;50.142;8.724;2023-07-29T03:53:05;18.60;99.90
19892;DHT22;10108;50.142;8.724;2023-07-29T03:55:32;18.60;99.90
19892;DHT22;10108;50.142;8.724;2023-07-29T03:57:59;18.60;99.90
19892;DHT22;10108;50.142;8.724;2023-07-29T04:00:27;18.70;99.90
19892;DHT22;10108;50.142;8.724;2023-07-29T04:02:53;18.70;99.90
19892;DHT22;10108;50.142;8.724;2023-07-29T04:05:20;18.70;99.90
19892;DHT22;10108;50.142;8.724;2023-07-29T04:07:46;18.70;99.90
19892;DHT22;10108;50.142;8.724;2023-07-29T04:10:13;18.80;99.90
19892;DHT22;10108;50.142;8.724;2023-07-29T04:12:39;18.70;99.90
19892;DHT22;10108;50.142;8.724;2023-07-29T04:15:06;18.80;99.90
19892;DHT22;10108;50.142;8.724;2023-07-29T04:17:32;18.80;99.90
19892;DHT22;10108;50.142;8.724;2023-07-29T04:19:58;18.80;99.90
19892;DHT22;10108;50.142;8.724;2023-07-29T04:22:29;18.80;99.90
19892;DHT22;10108;50.142;8.724;2023-07-29T04:24:55;18.80;99.90
19892;DHT22;10108;50.142;8.724;2023-07-29T04:27:21;18.80;99.90
19892;DHT22;10108;50.142;8.724;2023-07-29T04:29:48;18.90;99.90
19892;DHT22;10108;50.142;8.724;2023-07-29T04:32:14;18.80;99.90
19892;DHT22;10108;50.142;8.724;2023-07-29T04:34:42;18.80;99.90
19892;DHT22;10108;50.142;8.724;2023-07-29T04:37:08;18.80;99.90
19892;DHT22;10108;50.142;8.724;2023-07-29T04:39:34;18.80;99.90
19892;DHT22;10108;50.142;8.724;2023-07-29T04:42:00;18.80;99.90
19892;DHT22;10108;50.142;8.724;2023-07-29T04:44:26;18.80;99.90
19892;DHT22;10108;50.142;8.724;2023-07-29T04:46:53;18.80;99.90
19892;DHT22;10108;50.142;8.724;2023-07-29T04:49:19;18.90;99.90
19892;DHT22;10108;50.142;8.724;2023-07-29T04:51:45;18.90;99.90
19892;DHT22;10108;50.142;8.724;2023-07-29T04:54:12;18.90;99.90
19892;DHT22;10108;50.142;8.724;2023-07-29T04:56:38;18.90;99.90
19892;DHT22;10108;50.142;8.724;2023-07-29T04:59:04;19.00;99.90
19892;DHT22;10108;50.142;8.724;2023-07-29T05:01:30;18.90;99.90
19892;DHT22;10108;50.142;8.724;2023-07-29T05:03:56;18.90;99.90
19892;DHT22;10108;50.142;8.724;2023-07-29T05:06:22;18.90;99.90
19892;DHT22;10108;50.142;8.724;2023-07-29T05:08:49;19.00;99.90
19892;DHT22;10108;50.142;8.724;2023-07-29T05:11:15;19.00;99.90
19892;DHT22;10108;50.142;8.724;2023-07-29T05:13:41;19.00;99.90
19892;DHT22;10108;50.142;8.724;2023-07-29T05:16:09;19.00;99.90
19892;DHT22;10108;50.142;8.724;2023-07-29T05:18:36;19.00;99.90
19892;DHT22;10108;50.142;8.724;2023-07-29T05:21:02;19.00;99.90
19892;DHT22;10108;50.142;8.724;2023-07-29T05:23:28;19.10;99.90
19892;DHT22;10108;50.142;8.724;2023-07-29T05:25:54;19.10;99.90
19892;DHT22;10108;50.142;8.724;2023-07-29T05:28:20;19.10;99.90
19892;DHT22;10108;50.142;8.724;2023-07-29T05:30:46;19.10;99.90
19892;DHT22;10108;50.142;8.724;2023-07-29T05:33:12;19.10;99.90
19892;DHT22;10108;50.142;8.724;2023-07-29T05:35:39;19.10;99.90
19892;DHT22;10108;50.142;8.724;2023-07-29T05:38:06;19.10;99.90
19892;DHT22;10108;50.142;8.724;2023-07-29T05:40:34;19.10;99.90
19892;DHT22;10108;50.142;8.724;2023-07-29T05:43:00;19.10;99.90
19892;DHT22;10108;50.142;8.724;2023-07-29T05:45:26;19.10;99.90
19892;DHT22;10108;50.142;8.724;2023-07-29T05:47:52;19.10;99.90
19892;DHT22;10108;50.142;8.724;2023-07-29T05:50:20;19.20;99.90
19892;DHT22;10108;50.142;8.724;2023-07-29T05:52:46;19.10;99.90
19892;DHT22;10108;50.142;8.724;2023-07-29T05:55:13;19.10;99.90
19892;DHT22;10108;50.142;8.724;2023-07-29T05:57:39;19.10;99.90
19892;DHT22;10108;50.142;8.724;2023-07-29T06:00:07;19.10;99.90
19892;DHT22;10108;50.142;8.724;2023-07-29T06:02:39;19.10;99.90
19892;DHT22;10108;50.142;8.724;2023-07-29T06:05:08;19.10;99.90
19892;DHT22;10108;50.142;8.724;2023-07-29T06:07:34;19.10;99.90
19892;DHT22;10108;50.142;8.724;2023-07-29T06:10:00;19.10;99.90
19892;DHT22;10108;50.142;8.724;2023-07-29T06:12:26;19.10;99.90
19892;DHT22;10108;50.142;8.724;2023-07-29T06:14:53;19.10;99.90
19892;DHT22;10108;50.142;8.724;2023-07-29T06:17:19;19.20;99.90
19892;DHT22;10108;50.142;8.724;2023-07-29T06:19:45;19.20;99.90
19892;DHT22;10108;50.142;8.724;2023-07-29T06:22:12;19.20;99.90
19892;DHT22;10108;50.142;8.724;2023-07-29T06:24:38;19.20;99.90
19892;DHT22;10108;50.142;8.724;2023-07-29T06:27:04;19.20;99.90
19892;DHT22;10108;50.142;8.724;2023-07-29T06:29:30;19.10;99.90
19892;DHT22;10108;50.142;8.724;2023-07-29T06:31:58;19.20;99.90
19892;DHT22;10108;50.142;8.724;2023-07-29T06:34:24;19.20;99.90
19892;DHT22;10108;50.142;8.724;2023-07-29T06:36:50;19.10;99.90
19892;DHT22;10108;50.142;8.724;2023-07-29T06:39:16;19.20;99.90
19892;DHT22;10108;50.142;8.724;2023-07-29T06:41:42;19.00;99.90
19892;DHT22;10108;50.142;8.724;2023-07-29T06:44:08;19.00;99.90
19892;DHT22;10108;50.142;8.724;2023-07-29T06:46:35;19.00;99.90
19892;DHT22;10108;50.142;8.724;2023-07-29T06:49:01;19.00;99.90
19892;DHT22;10108;50.142;8.724;2023-07-29T06:51:27;18.90;99.90
19892;DHT22;10108;50.142;8.724;2023-07-29T06:53:55;19.10;99.90
19892;DHT22;10108;50.142;8.724;2023-07-29T06:56:21;19.00;99.90
19892;DHT22;10108;50.142;8.724;2023-07-29T06:58:47;18.90;99.90
19892;DHT22;10108;50.142;8.724;2023-07-29T07:01:13;18.90;99.90
19892;DHT22;10108;50.142;8.724;2023-07-29T07:03:39;19.10;99.90
19892;DHT22;10108;50.142;8.724;2023-07-29T07:06:05;19.00;99.90
19892;DHT22;10108;50.142;8.724;2023-07-29T07:08:31;18.90;99.90
19892;DHT22;10108;50.142;8.724;2023-07-29T07:10:58;18.90;99.90
19892;DHT22;10108;50.142;8.724;2023-07-29T07:13:24;19.00;99.90
19892;DHT22;10108;50.142;8.724;2023-07-29T07:15:50;18.90;99.90
19892;DHT22;10108;50.142;8.724;2023-07-29T07:18:16;18.90;99.90
19892;DHT22;10108;50.142;8.724;2023-07-29T07:20:42;18.90;99.90
19892;DHT22;10108;50.142;8.724;2023-07-29T07:23:08;19.10;99.90
19892;DHT22;10108;50.142;8.724;2023-07-29T07:25:37;18.90;99.90
19892;DHT22;10108;50.142;8.724;2023-07-29T07:28:04;18.90;99.90
19892;DHT22;10108;50.142;8.724;2023-07-29T07:30:30;18.90;99.90
19892;DHT22;10108;50.142;8.724;2023-07-29T07:32:56;18.90;99.90
19892;DHT22;10108;50.142;8.724;2023-07-29T07:35:22;19.00;99.90
19892;DHT22;10108;50.142;8.724;2023-07-29T07:37:48;19.00;99.90
19892;DHT22;10108;50.142;8.724;2023-07-29T07:40:14;19.10;99.90
19892;DHT22;10108;50.142;8.724;2023-07-29T07:42:40;19.10;99.90
19892;DHT22;10108;50.142;8.724;2023-07-29T07:45:06;19.10;99.90
19892;DHT22;10108;50.142;8.724;2023-07-29T07:47:32;19.00;99.90
19892;DHT22;10108;50.142;8.724;2023-07-29T07:49:58;19.10;99.90
19892;DHT22;10108;50.142;8.724;2023-07-29T07:52:25;19.00;99.90
19892;DHT22;10108;50.142;8.724;2023-07-29T07:54:54;19.10;99.90
19892;DHT22;10108;50.142;8.724;2023-07-29T07:57:21;19.00;99.90
19892;DHT22;10108;50.142;8.724;2023-07-29T07:59:47;19.00;99.90
19892;DHT22;10108;50.142;8.724;2023-07-29T08:02:13;19.20;99.90
19892;DHT22;10108;50.142;8.724;2023-07-29T08:04:40;19.10;99.90
19892;DHT22;10108;50.142;8.724;2023-07-29T08:07:06;19.20;99.90
19892;DHT22;10108;50.142;8.724;2023-07-29T08:09:32;19.20;99.90
19892;DHT22;10108;50.142;8.724;2023-07-29T08:11:58;19.30;99.90
19892;DHT22;10108;50.142;8.724;2023-07-29T08:14:24;19.10;99.90
19892;DHT22;10108;50.142;8.724;2023-07-29T08:16:50;19.10;99.90
19892;DHT22;10108;50.142;8.724;2023-07-29T08:19:16;19.10;99.90
19892;DHT22;10108;50.142;8.724;2023-07-29T08:21:43;19.10;99.90
19892;DHT22;10108;50.142;8.724;2023-07-29T08:24:09;19.30;99.90
19892;DHT22;10108;50.142;8.724;2023-07-29T08:26:35;19.20;99.90
19892;DHT22;10108;50.142;8.724;2023-07-29T08:29:01;19.20;99.90
19892;DHT22;10108;50.142;8.724;2023-07-29T08:31:27;19.20;99.90
19892;DHT22;10108;50.142;8.724;2023-07-29T08:33:53;19.40;99.90
19892;DHT22;10108;50.142;8.724;2023-07-29T08:36:19;19.30;99.90
19892;DHT22;10108;50.142;8.724;2023-07-29T08:38:45;19.40;99.90
19892;DHT22;10108;50.142;8.724;2023-07-29T08:41:19;19.40;99.90
19892;DHT22;10108;50.142;8.724;2023-07-29T08:44:04;19.40;99.90
19892;DHT22;10108;50.142;8.724;2023-07-29T08:46:33;19.40;99.90
19892;DHT22;10108;50.142;8.724;2023-07-29T08:48:59;19.50;99.90
19892;DHT22;10108;50.142;8.724;2023-07-29T08:51:28;19.50;99.90
19892;DHT22;10108;50.142;8.724;2023-07-29T08:53:55;19.50;99.90
19892;DHT22;10108;50.142;8.724;2023-07-29T08:56:21;19.50;99.90
19892;DHT22;10108;50.142;8.724;2023-07-29T08:58:48;19.50;99.90
19892;DHT22;10108;50.142;8.724;2023-07-29T09:01:15;19.50;99.90
19892;DHT22;10108;50.142;8.724;2023-07-29T09:03:41;19.50;99.90
19892;DHT22;10108;50.142;8.724;2023-07-29T09:06:08;19.60;99.90
19892;DHT22;10108;50.142;8.724;2023-07-29T09:08:34;19.60;99.90
19892;DHT22;10108;50.142;8.724;2023-07-29T09:11:01;19.70;99.90
19892;DHT22;10108;50.142;8.724;2023-07-29T09:13:27;19.70;99.90
19892;DHT22;10108;50.142;8.724;2023-07-29T09:15:55;19.60;99.90
19892;DHT22;10108;50.142;8.724;2023-07-29T09:18:23;19.70;99.90
19892;DHT22;10108;50.142;8.724;2023-07-29T09:20:52;19.60;99.90
19892;DHT22;10108;50.142;8.724;2023-07-29T09:23:18;19.50;99.90
19892;DHT22;10108;50.142;8.724;2023-07-29T09:25:48;19.50;99.90
19892;DHT22;10108;50.142;8.724;2023-07-29T09:28:15;19.50;99.90
19892;DHT22;10108;50.142;8.724;2023-07-29T09:30:44;19.60;99.90
19892;DHT22;10108;50.142;8.724;2023-07-29T09:33:10;19.70;99.90
19892;DHT22;10108;50.142;8.724;2023-07-29T09:35:37;19.70;99.90
19892;DHT22;10108;50.142;8.724;2023-07-29T09:38:04;19.80;99.90
19892;DHT22;10108;50.142;8.724;2023-07-29T09:40:38;19.80;99.90
19892;DHT22;10108;50.142;8.724;2023-07-29T09:43:06;19.90;99.90
19892;DHT22;10108;50.142;8.724;2023-07-29T09:45:34;19.90;99.90
19892;DHT22;10108;50.142;8.724;2023-07-29T09:48:02;19.90;99.90
19892;DHT22;10108;50.142;8.724;2023-07-29T09:50:29;20.00;99.90
19892;DHT22;10108;50.142;8.724;2023-07-29T09:52:56;20.10;99.90
19892;DHT22;10108;50.142;8.724;2023-07-29T09:55:26;20.20;99.90
19892;DHT22;10108;50.142;8.724;2023-07-29T09:57:59;20.20;99.90
19892;DHT22;10108;50.142;8.724;2023-07-29T10:00:28;20.20;99.90
19892;DHT22;10108;50.142;8.724;2023-07-29T10:02:56;20.20;99.90
19892;DHT22;10108;50.142;8.724;2023-07-29T10:05:22;20.20;99.90
19892;DHT22;10108;50.142;8.724;2023-07-29T10:07:49;20.20;99.90
19892;DHT22;10108;50.142;8.724;2023-07-29T10:10:16;20.20;99.90
19892;DHT22;10108;50.142;8.724;2023-07-29T10:12:43;20.20;99.90
19892;DHT22;10108;50.142;8.724;2023-07-29T10:15:10;20.20;99.90
19892;DHT22;10108;50.142;8.724;2023-07-29T10:17:37;20.20;99.90
19892;DHT22;10108;50.142;8.724;2023-07-29T10:20:05;20.30;99.90
19892;DHT22;10108;50.142;8.724;2023-07-29T10:22:43;20.40;99.90
19892;DHT22;10108;50.142;8.724;2023-07-29T10:25:17;20.40;99.90
19892;DHT22;10108;50.142;8.724;2023-07-29T10:30:14;20.40;99.90
19892;DHT22;10108;50.142;8.724;2023-07-29T10:32:43;20.40;99.90
19892;DHT22;10108;50.142;8.724;2023-07-29T10:35:11;20.40;99.90
19892;DHT22;10108;50.142;8.724;2023-07-29T10:37:38;20.40;99.90
19892;DHT22;10108;50.142;8.724;2023-07-29T10:40:09;20.30;99.90
19892;DHT22;10108;50.142;8.724;2023-07-29T10:42:36;20.30;99.90
19892;DHT22;10108;50.142;8.724;2023-07-29T10:45:19;20.30;99.90
19892;DHT22;10108;50.142;8.724;2023-07-29T10:47:47;20.40;99.90
19892;DHT22;10108;50.142;8.724;2023-07-29T10:50:20;20.50;99.90
19892;DHT22;10108;50.142;8.724;2023-07-29T10:52:51;20.60;99.90
19892;DHT22;10108;50.142;8.724;2023-07-29T10:58:07;20.70;99.90
19892;DHT22;10108;50.142;8.724;2023-07-29T11:00:34;20.70;99.90
19892;DHT22;10108;50.142;8.724;2023-07-29T11:03:02;20.70;99.90
19892;DHT22;10108;50.142;8.724;2023-07-29T11:05:51;20.80;99.90
19892;DHT22;10108;50.142;8.724;2023-07-29T11:08:22;20.80;99.90
19892;DHT22;10108;50.142;8.724;2023-07-29T11:13:31;20.80;99.90
19892;DHT22;10108;50.142;8.724;2023-07-29T11:15:58;20.80;99.90
19892;DHT22;10108;50.142;8.724;2023-07-29T11:18:29;20.80;99.90
19892;DHT22;10108;50.142;8.724;2023-07-29T11:20:57;20.80;99.90
19892;DHT22;10108;50.142;8.724;2023-07-29T11:23:32;20.80;99.90
19892;DHT22;10108;50.142;8.724;2023-07-29T11:25:59;20.70;99.90
19892;DHT22;10108;50.142;8.724;2023-07-29T11:28:26;20.60;99.90
19892;DHT22;10108;50.142;8.724;2023-07-29T11:30:54;20.50;99.90
19892;DHT22;10108;50.142;8.724;2023-07-29T11:33:25;20.50;99.90
19892;DHT22;10108;50.142;8.724;2023-07-29T11:35:52;20.40;99.90
19892;DHT22;10108;50.142;8.724;2023-07-29T11:38:19;20.30;99.90
19892;DHT22;10108;50.142;8.724;2023-07-29T11:41:01;20.30;99.90
19892;DHT22;10108;50.142;8.724;2023-07-29T11:43:35;20.20;99.90
19892;DHT22;10108;50.142;8.724;2023-07-29T11:46:01;20.10;99.90
19892;DHT22;10108;50.142;8.724;2023-07-29T11:48:31;20.20;99.90
19892;DHT22;10108;50.142;8.724;2023-07-29T11:50:58;20.20;99.90
19892;DHT22;10108;50.142;8.724;2023-07-29T11:53:30;20.10;99.90
19892;DHT22;10108;50.142;8.724;2023-07-29T11:55:57;20.20;99.90
19892;DHT22;10108;50.142;8.724;2023-07-29T11:58:24;20.20;99.90
19892;DHT22;10108;50.142;8.724;2023-07-29T12:00:51;20.20;99.90
19892;DHT22;10108;50.142;8.724;2023-07-29T12:03:17;20.20;99.90
19892;DHT22;10108;50.142;8.724;2023-07-29T12:05:44;20.20;99.90
19892;DHT22;10108;50.142;8.724;2023-07-29T12:08:10;20.20;99.90
19892;DHT22;10108;50.142;8.724;2023-07-29T12:10:37;20.10;99.90
19892;DHT22;10108;50.142;8.724;2023-07-29T12:13:03;20.20;99.90
19892;DHT22;10108;50.142;8.724;2023-07-29T12:15:30;20.20;99.90
19892;DHT22;10108;50.142;8.724;2023-07-29T12:17:57;20.30;99.90
19892;DHT22;10108;50.142;8.724;2023-07-29T12:20:23;20.30;99.90
19892;DHT22;10108;50.142;8.724;2023-07-29T12:22:57;20.30;99.90
19892;DHT22;10108;50.142;8.724;2023-07-29T12:25:23;20.40;99.90
19892;DHT22;10108;50.142;8.724;2023-07-29T12:27:50;20.40;99.90
19892;DHT22;10108;50.142;8.724;2023-07-29T12:30:16;20.50;99.90
19892;DHT22;10108;50.142;8.724;2023-07-29T12:32:46;20.40;99.90
19892;DHT22;10108;50.142;8.724;2023-07-29T12:35:12;20.40;99.90
19892;DHT22;10108;50.142;8.724;2023-07-29T12:37:39;20.40;99.90
19892;DHT22;10108;50.142;8.724;2023-07-29T12:40:24;20.50;99.90
19892;DHT22;10108;50.142;8.724;2023-07-29T12:42:51;20.50;99.90
19892;DHT22;10108;50.142;8.724;2023-07-29T12:45:17;20.50;99.90
19892;DHT22;10108;50.142;8.724;2023-07-29T12:47:44;20.50;99.90
19892;DHT22;10108;50.142;8.724;2023-07-29T12:50:10;20.50;99.90
19892;DHT22;10108;50.142;8.724;2023-07-29T12:52:37;20.50;99.90
19892;DHT22;10108;50.142;8.724;2023-07-29T12:55:03;20.50;99.90
19892;DHT22;10108;50.142;8.724;2023-07-29T12:57:29;20.50;99.90
19892;DHT22;10108;50.142;8.724;2023-07-29T12:59:55;20.50;99.90
19892;DHT22;10108;50.142;8.724;2023-07-29T13:02:21;20.60;99.90
19892;DHT22;10108;50.142;8.724;2023-07-29T13:04:47;20.70;99.90
19892;DHT22;10108;50.142;8.724;2023-07-29T13:07:14;20.80;99.90
19892;DHT22;10108;50.142;8.724;2023-07-29T13:09:40;20.80;99.90
19892;DHT22;10108;50.142;8.724;2023-07-29T13:12:06;20.90;99.90
19892;DHT22;10108;50.142;8.724;2023-07-29T13:14:32;20.90;99.90
19892;DHT22;10108;50.142;8.724;2023-07-29T13:16:58;20.90;99.90
19892;DHT22;10108;50.142;8.724;2023-07-29T13:19:24;20.90;99.90
19892;DHT22;10108;50.142;8.724;2023-07-29T13:21:51;20.90;99.90
19892;DHT22;10108;50.142;8.724;2023-07-29T13:24:17;20.90;99.90
19892;DHT22;10108;50.142;8.724;2023-07-29T13:26:43;20.90;99.90
19892;DHT22;10108;50.142;8.724;2023-07-29T13:29:09;20.80;99.90
19892;DHT22;10108;50.142;8.724;2023-07-29T13:31:35;20.80;99.90
19892;DHT22;10108;50.142;8.724;2023-07-29T13:34:01;20.90;99.90
19892;DHT22;10108;50.142;8.724;2023-07-29T13:36:27;21.00;99.90
19892;DHT22;10108;50.142;8.724;2023-07-29T13:38:53;21.00;99.90
19892;DHT22;10108;50.142;8.724;2023-07-29T13:41:19;21.10;99.90
19892;DHT22;10108;50.142;8.724;2023-07-29T13:43:45;21.20;99.90
19892;DHT22;10108;50.142;8.724;2023-07-29T13:46:11;21.10;99.90
19892;DHT22;10108;50.142;8.724;2023-07-29T13:48:37;21.10;99.90
19892;DHT22;10108;50.142;8.724;2023-07-29T13:51:04;21.00;99.90
19892;DHT22;10108;50.142;8.724;2023-07-29T13:53:30;21.00;99.90
19892;DHT22;10108;50.142;8.724;2023-07-29T13:55:56;21.00;99.90
19892;DHT22;10108;50.142;8.724;2023-07-29T13:58:22;21.00;99.90
19892;DHT22;10108;50.142;8.724;2023-07-29T14:00:48;21.00;99.90
19892;DHT22;10108;50.142;8.724;2023-07-29T14:03:14;20.90;99.90
19892;DHT22;10108;50.142;8.724;2023-07-29T14:05:41;20.80;99.90
19892;DHT22;10108;50.142;8.724;2023-07-29T14:08:07;20.80;99.90
19892;DHT22;10108;50.142;8.724;2023-07-29T14:10:33;20.70;99.90
19892;DHT22;10108;50.142;8.724;2023-07-29T14:12:59;20.80;99.90
19892;DHT22;10108;50.142;8.724;2023-07-29T14:15:25;20.90;99.90
19892;DHT22;10108;50.142;8.724;2023-07-29T14:17:51;20.90;99.90
19892;DHT22;10108;50.142;8.724;2023-07-29T14:20:17;21.00;99.90
19892;DHT22;10108;50.142;8.724;2023-07-29T14:22:43;21.00;99.90
19892;DHT22;10108;50.142;8.724;2023-07-29T14:25:10;20.90;99.90
19892;DHT22;10108;50.142;8.724;2023-07-29T14:27:36;20.90;99.90
19892;DHT22;10108;50.142;8.724;2023-07-29T14:30:04;20.80;99.90
19892;DHT22;10108;50.142;8.724;2023-07-29T14:32:30;20.80;99.90
19892;DHT22;10108;50.142;8.724;2023-07-29T14:34:56;20.90;99.90
19892;DHT22;10108;50.142;8.724;2023-07-29T14:37:22;20.90;99.90
19892;DHT22;10108;50.142;8.724;2023-07-29T14:39:49;21.00;99.90
19892;DHT22;10108;50.142;8.724;2023-07-29T14:42:15;20.90;99.90
19892;DHT22;10108;50.142;8.724;2023-07-29T14:44:41;20.90;99.90
19892;DHT22;10108;50.142;8.724;2023-07-29T14:47:08;20.80;99.90
19892;DHT22;10108;50.142;8.724;2023-07-29T14:49:34;20.80;99.90
19892;DHT22;10108;50.142;8.724;2023-07-29T14:52:00;20.80;99.90
19892;DHT22;10108;50.142;8.724;2023-07-29T14:54:26;20.70;99.90
19892;DHT22;10108;50.142;8.724;2023-07-29T14:56:52;20.70;99.90
19892;DHT22;10108;50.142;8.724;2023-07-29T14:59:18;20.60;99.90
19892;DHT22;10108;50.142;8.724;2023-07-29T15:01:44;20.60;99.90
19892;DHT22;10108;50.142;8.724;2023-07-29T15:04:10;20.60;99.90
19892;DHT22;10108;50.142;8.724;2023-07-29T15:06:36;20.70;99.90
19892;DHT22;10108;50.142;8.724;2023-07-29T15:09:05;20.80;99.90
19892;DHT22;10108;50.142;8.724;2023-07-29T15:11:31;20.80;99.90
19892;DHT22;10108;50.142;8.724;2023-07-29T15:14:01;20.80;99.90
19892;DHT22;10108;50.142;8.724;2023-07-29T15:16:29;20.80;99.90
19892;DHT22;10108;50.142;8.724;2023-07-29T15:18:55;20.80;99.90
19892;DHT22;10108;50.142;8.724;2023-07-29T15:21:21;20.70;99.90
19892;DHT22;10108;50.142;8.724;2023-07-29T15:23:48;20.70;99.90
19892;DHT22;10108;50.142;8.724;2023-07-29T15:26:14;20.80;99.90
19892;DHT22;10108;50.142;8.724;2023-07-29T15:28:40;20.70;99.90
19892;DHT22;10108;50.142;8.724;2023-07-29T15:31:06;20.80;99.90
19892;DHT22;10108;50.142;8.724;2023-07-29T15:33:32;20.80;99.90
19892;DHT22;10108;50.142;8.724;2023-07-29T15:36:00;20.90;99.90
19892;DHT22;10108;50.142;8.724;2023-07-29T15:38:27;20.90;99.90
19892;DHT22;10108;50.142;8.724;2023-07-29T15:40:53;21.00;99.90
19892;DHT22;10108;50.142;8.724;2023-07-29T15:43:19;21.00;99.90